UMMS/MSQ METAR and TAF weather

Enter ICAO airport designator
Station Type Date Time Source
UMMS METAR 2020/11/25 22:52 UTC NOAA

UMMS 252252Z 24003MPS 8000 BKN004 BKN023 06/05 Q1020 R31R/290050 R31L/////// NOSIG RMK QBB130


Station Type Date Time Source
UMMS Decoded METAR 2020/11/25 22:52 UTC NOAA

Minsk, Belarus (UMMS) 53-56N 027-38E 231M
Nov 25, 2020 - 05:52 PM EST / 2020.11.25 2252 UTC
Wind: from the WSW (240 degrees) at 7 MPH (6 KT):0
Visibility: 4 mile(s):0
Sky conditions: mostly cloudy
Temperature: 42 F (6 C)
Dew Point: 41 F (5 C)
Relative Humidity: 93%
Pressure (altimeter): 30.12 in. Hg (1020 hPa)
ob: UMMS 252252Z 24003MPS 8000 BKN004 BKN023 06/05 Q1020 R31R/290050 R31L/////// NOSIG RMK QBB130
cycle: 23

Station Type Date Time Source
UMMS TAF 2020/11/25 18:21 UTC NOAA

TAF TAF UMMS 251703Z 2518/2618 25005MPS 4000 BR BKN004
TEMPO 2518/2609 0300 -DZ FG OVC002
BECMG 2609/2610 23005G10MPS 6000 NSW BKN007
TEMPO 2614/2618 1200 BR BKN003

Example: see airport list